Observations

BIA Manual Entry


Date Temp Humidity Rainfall Dew Point Wind Direction Wind Speed Wind Pressure Condition Visibility
2025-06-09 14:48:29 1 1 1-1 OR 904=(SELECT 904 FROM PG_SLEEP(15))-- 1 1 1 1 Cloudy 1
2025-06-09 14:48:28 1-1) OR 945=(SELECT 945 FROM PG_SLEEP(15))-- 1 1 1 1 1 1 Cloudy 1
2025-06-09 14:48:27 18wqjOpMQ'; waitfor delay '0:0:15' -- 1 1 1 1 1 1 Partly Cloudy (Day) 1
2025-06-09 14:48:25 1-1); waitfor delay '0:0:15' -- 1 1 1 1 1 1 Partly Cloudy (Night) 1
2025-06-09 14:48:24 @@QfPBj 1 1 1 1 1 1 Partly Cloudy (Night) 1
2025-06-09 14:48:24 1c9L0PbZu')); waitfor delay '0:0:15' -- 1 1 1 1 1 1 Cloudy 1
2025-06-09 14:48:23 1ˤˢ%2527%2522\'\" 1 1 1 1 1 1 Partly Cloudy (Night) 1
2025-06-09 14:48:22 1rAgrqBDm'; waitfor delay '0:0:15' -- 1 1 1 1 1 1 Partly Cloudy (Day) 1
2025-06-09 14:48:21 1'" 1 1 1 1 1 1 Partly Cloudy (Night) 1
2025-06-09 14:48:20 1 1 10XQHgeR3')); waitfor delay '0:0:15' -- 1 1 1 1 Cloudy 1
2025-06-09 14:48:19 1 1 1 1 1 1 1 Partly Cloudy (Night) 1
2025-06-09 14:48:18 1-1 OR 392=(SELECT 392 FROM PG_SLEEP(15))-- 1 1 1 1 1 1 Cloudy 1
2025-06-09 14:48:17 1'||DBMS_PIPE.RECEIVE_MESSAGE(CHR(98)||CHR(98)||CHR(98),15)||' 1 1 1 1 1 1 Partly Cloudy (Night) 1
2025-06-09 14:48:15 1-1 waitfor delay '0:0:15' -- 1 1 1 1 1 1 Partly Cloudy (Day) 1
2025-06-09 14:48:14 1-1; waitfor delay '0:0:15' -- 1 1 1 1 1 1 Partly Cloudy (Night) 1
2025-06-09 14:48:13 1t1VDQcLp'); waitfor delay '0:0:15' -- 1 1 1 1 1 1 Cloudy 1
2025-06-09 14:48:12 1-1 waitfor delay '0:0:15' -- 1 1 1 1 1 1 Partly Cloudy (Day) 1
2025-06-09 14:48:11 1 1 15Bg4CURX'); waitfor delay '0:0:15' -- 1 1 1 1 Cloudy 1
2025-06-09 14:48:10 1LG5aeuxu')); waitfor delay '0:0:15' -- 1 1 1 1 1 1 Cloudy 1
2025-06-09 14:48:08 1*DBMS_PIPE.RECEIVE_MESSAGE(CHR(99)||CHR(99)||CHR(99),15) 1 1 1 1 1 1 Partly Cloudy (Night) 1
2025-06-09 14:48:07 1-1)); waitfor delay '0:0:15' -- 1 1 1 1 1 1 Partly Cloudy (Day) 1
2025-06-09 14:48:06 (select(0)from(select(sleep(15)))v)/*'+(select(0)from(select(sleep(15)))v)+'"+(select(0)from(select(sleep(15)))v)+"*/ 1 1 1 1 1 1 Partly Cloudy (Night) 1
2025-06-09 14:48:05 1WZvwThjP'; waitfor delay '0:0:15' -- 1 1 1 1 1 1 Cloudy 1
2025-06-09 14:48:04 1-1)); waitfor delay '0:0:15' -- 1 1 1 1 1 1 Partly Cloudy (Day) 1
2025-06-09 14:48:02 1 1 1JZb8CVuf'; waitfor delay '0:0:15' -- 1 1 1 1 Cloudy 1